Kempton, North Dakota
Current Conditions -  °F | °C
As of 7:58 PM on Wednesday 22 Oct 2014 (Local Time) from KRDR Reporting Station
Clear Clear  
Wind Chill: 53°   Ceiling: Unl
Heat Index: 53°   Visibility: 10mi
Dew Point: 53°   Wind: 6mph
Humidity: 99%   Direction: 220°SW
Pressure: 29.84"   Gusts: NA
Location:  47.7445°N, 97.5815°W
Report Text: KRDR 230058Z AUTO 22005KT 10SM CLR 12/11 A2984 RMK AO2 SLP113 T01150114
Loading
Personal Weather Stations






























Interactive Weather Map
Tropical Storm Tracking
New forecast layout! Learn more

10-Day Weather Forecast

Advertisements
Track Severe Weather on mobile